Isla de Alboran, Spain
Current Conditions -  °F | °C
As of 7:00 PM on Thursday 27 Nov 2014 (Local Time) from GEML Reporting Station
Few Clouds Few Clouds  
Wind Chill: 64°   Ceiling: Unl
Heat Index: 64°   Visibility: 6mi
Dew Point: 54°   Wind: 5mph
Humidity: 68%   Direction: 270°W
Pressure: 29.5"   Gusts: NA
Location:  35.9°N, 3.03°W
Report Text: GEML 271800Z 27004KT 230V320 9999 FEW020 18/12 Q0999
Loading
Personal Weather Stations






























Interactive Weather Map New forecast layout! Learn more

10-Day Weather Forecast

Advertisements
Track Severe Weather on mobile